createdAt,value
2018-01-15T00:00:02.924Z,777.73
2018-01-15T00:00:06.740Z,777.72
2018-01-15T00:00:10.775Z,777.73
2018-01-15T00:00:14.782Z,777.71
2018-01-15T00:00:18.801Z,777.73
2018-01-15T00:00:22.594Z,777.71
2018-01-15T00:00:26.504Z,777.71
2018-01-15T00:00:30.414Z,777.71
2018-01-15T00:00:34.540Z,777.72
2018-01-15T00:00:38.446Z,777.71
2018-01-15T00:00:42.446Z,777.69
2018-01-15T00:00:46.239Z,777.68
2018-01-15T00:00:49.933Z,777.68
2018-01-15T00:00:53.657Z,777.64
2018-01-15T00:00:57.674Z,777.74
2018-01-15T00:01:01.576Z,777.74
2018-01-15T00:01:05.632Z,777.73
2018-01-15T00:01:09.430Z,777.71
2018-01-15T00:01:13.342Z,777.71
2018-01-15T00:01:17.261Z,777.72
2018-01-15T00:01:21.291Z,777.7
2018-01-15T00:01:25.191Z,777.66
2018-01-15T00:01:28.993Z,777.64
2018-01-15T00:01:33.011Z,777.7
2018-01-15T00:01:36.924Z,777.71
2018-01-15T00:01:40.938Z,777.72
2018-01-15T00:01:44.854Z,777.72
2018-01-15T00:01:48.871Z,777.7
2018-01-15T00:01:52.883Z,777.7
2018-01-15T00:01:56.681Z,777.71
2018-01-15T00:02:00.492Z,777.71
2018-01-15T00:02:04.672Z,777.71
2018-01-15T00:02:08.580Z,777.72
2018-01-15T00:02:12.615Z,777.72
2018-01-15T00:02:16.530Z,777.71
2018-01-15T00:02:20.540Z,777.7
2018-01-15T00:02:24.450Z,777.72
2018-01-15T00:02:28.258Z,777.67
2018-01-15T00:02:32.280Z,777.68
2018-01-15T00:02:36.201Z,777.7
2018-01-15T00:02:40.020Z,777.7
2018-01-15T00:02:44.028Z,777.7
2018-01-15T00:02:47.832Z,777.72
2018-01-15T00:02:51.899Z,777.72
2018-01-15T00:02:55.711Z,777.71
2018-01-15T00:02:59.517Z,777.67
2018-01-15T00:03:03.470Z,777.67
2018-01-15T00:03:07.384Z,777.67
2018-01-15T00:03:11.197Z,777.64
2018-01-15T00:03:15.117Z,777.68
2018-01-15T00:03:18.940Z,777.66
2018-01-15T00:03:22.842Z,777.71
2018-01-15T00:03:26.768Z,777.68
2018-01-15T00:03:30.801Z,777.68
2018-01-15T00:03:34.703Z,777.66
2018-01-15T00:03:38.709Z,777.68
2018-01-15T00:03:42.627Z,777.65
2018-01-15T00:03:46.436Z,777.65
2018-01-15T00:03:50.406Z,777.68
2018-01-15T00:03:54.421Z,777.68
2018-01-15T00:03:58.331Z,777.73
2018-01-15T00:04:02.769Z,777.69
2018-01-15T00:04:06.582Z,777.72
2018-01-15T00:04:10.494Z,777.74
2018-01-15T00:04:14.304Z,777.7
2018-01-15T00:04:18.225Z,777.66
2018-01-15T00:04:22.472Z,777.65
2018-01-15T00:04:26.170Z,777.67
2018-01-15T00:04:30.098Z,777.65
2018-01-15T00:04:34.006Z,777.63
2018-01-15T00:04:38.248Z,777.65
2018-01-15T00:04:42.261Z,777.62
2018-01-15T00:04:46.398Z,777.64
2018-01-15T00:04:50.110Z,777.67
2018-01-15T00:04:54.026Z,777.68
2018-01-15T00:04:57.934Z,777.7
2018-01-15T00:05:01.961Z,777.67
2018-01-15T00:05:05.850Z,777.68
2018-01-15T00:05:09.672Z,777.69
2018-01-15T00:05:13.575Z,777.67
2018-01-15T00:05:17.489Z,777.68
2018-01-15T00:05:21.301Z,777.67
2018-01-15T00:05:25.305Z,777.69
2018-01-15T00:05:29.329Z,777.67
2018-01-15T00:05:33.459Z,777.64
2018-01-15T00:05:37.478Z,777.64
2018-01-15T00:05:41.409Z,777.65
2018-01-15T00:05:45.216Z,777.65
2018-01-15T00:05:49.363Z,777.65
2018-01-15T00:05:53.282Z,777.63
2018-01-15T00:05:57.081Z,777.62
2018-01-15T00:06:01.209Z,777.62
2018-01-15T00:06:05.386Z,777.62
2018-01-15T00:06:09.357Z,777.6
2018-01-15T00:06:13.169Z,777.58
2018-01-15T00:06:16.859Z,777.56
2018-01-15T00:06:20.862Z,777.58
2018-01-15T00:06:24.768Z,777.62
2018-01-15T00:06:28.685Z,777.58
2018-01-15T00:06:32.718Z,777.59
2018-01-15T00:06:36.754Z,777.6
2018-01-15T00:06:40.879Z,777.58
2018-01-15T00:06:44.594Z,777.55
2018-01-15T00:06:48.837Z,777.51
2018-01-15T00:06:52.861Z,777.54
2018-01-15T00:06:56.772Z,777.56
2018-01-15T00:07:00.890Z,777.55
2018-01-15T00:07:04.902Z,777.53
2018-01-15T00:07:08.808Z,777.56
2018-01-15T00:07:12.711Z,777.51
2018-01-15T00:07:16.829Z,777.52
2018-01-15T00:07:20.754Z,777.5
2018-01-15T00:07:24.760Z,777.49
2018-01-15T00:07:28.579Z,777.49
2018-01-15T00:07:32.484Z,777.48
2018-01-15T00:07:36.507Z,777.49
2018-01-15T00:07:40.409Z,777.43
2018-01-15T00:07:44.321Z,777.46
2018-01-15T00:07:48.129Z,777.49
2018-01-15T00:07:51.837Z,777.45
2018-01-15T00:07:55.762Z,777.46
2018-01-15T00:07:59.692Z,777.43
2018-01-15T00:08:03.503Z,777.43
2018-01-15T00:08:07.413Z,777.44
2018-01-15T00:08:11.386Z,777.39
2018-01-15T00:08:15.298Z,777.4
2018-01-15T00:08:19.204Z,777.4
2018-01-15T00:08:23.012Z,777.34
2018-01-15T00:08:27.121Z,777.36
2018-01-15T00:08:31.140Z,777.37
2018-01-15T00:08:35.158Z,777.38
2018-01-15T00:08:39.176Z,777.34
2018-01-15T00:08:43.414Z,777.35
2018-01-15T00:08:47.334Z,777.33
2018-01-15T00:08:51.509Z,777.3
2018-01-15T00:08:55.526Z,777.29
2018-01-15T00:08:59.537Z,777.25
2018-01-15T00:09:03.613Z,777.31
2018-01-15T00:09:07.424Z,777.29
2018-01-15T00:09:11.350Z,777.27
2018-01-15T00:09:15.168Z,777.24
2018-01-15T00:09:19.090Z,777.24
2018-01-15T00:09:23.119Z,777.21
2018-01-15T00:09:27.020Z,777.2
2018-01-15T00:09:31.041Z,777.18
2018-01-15T00:09:34.954Z,777.18
2018-01-15T00:09:38.865Z,777.16
2018-01-15T00:09:42.791Z,777.16
2018-01-15T00:09:46.700Z,777.16
2018-01-15T00:09:50.725Z,777.13
2018-01-15T00:09:54.741Z,777.12
2018-01-15T00:09:58.879Z,777.11
2018-01-15T00:10:02.913Z,777.1
2018-01-15T00:10:06.922Z,777.1
2018-01-15T00:10:10.727Z,777.07
2018-01-15T00:10:14.693Z,777.07
2018-01-15T00:10:18.604Z,777.07
2018-01-15T00:10:22.622Z,776.98
2018-01-15T00:10:26.537Z,776.96
2018-01-15T00:10:30.462Z,776.97
2018-01-15T00:10:34.360Z,776.97
2018-01-15T00:10:38.277Z,776.98
2018-01-15T00:10:42.184Z,776.96
2018-01-15T00:10:46.297Z,776.94
2018-01-15T00:10:50.420Z,776.96
2018-01-15T00:10:54.435Z,776.9
2018-01-15T00:10:58.353Z,776.89
2018-01-15T00:11:02.477Z,776.89
2018-01-15T00:11:06.601Z,776.85
2018-01-15T00:11:10.620Z,776.87
2018-01-15T00:11:14.321Z,776.84
2018-01-15T00:11:18.221Z,776.8
2018-01-15T00:11:22.004Z,776.8
2018-01-15T00:11:25.919Z,776.76
2018-01-15T00:11:29.715Z,776.81
2018-01-15T00:11:33.622Z,776.76
2018-01-15T00:11:37.530Z,776.76
2018-01-15T00:11:41.430Z,776.72
2018-01-15T00:11:45.230Z,776.74
2018-01-15T00:11:49.020Z,776.76
2018-01-15T00:11:53.161Z,776.71
2018-01-15T00:11:57.173Z,776.73
2018-01-15T00:12:01.193Z,776.7
2018-01-15T00:12:05.169Z,776.69
2018-01-15T00:12:09.177Z,776.66
2018-01-15T00:12:13.091Z,776.65
2018-01-15T00:12:16.823Z,776.66
2018-01-15T00:12:20.837Z,776.65
2018-01-15T00:12:24.861Z,776.61
2018-01-15T00:12:28.658Z,776.59
2018-01-15T00:12:32.684Z,776.59
2018-01-15T00:12:36.587Z,776.55
2018-01-15T00:12:40.505Z,776.57
2018-01-15T00:12:44.511Z,776.53
2018-01-15T00:12:48.303Z,776.52
2018-01-15T00:12:52.438Z,776.51
2018-01-15T00:12:56.460Z,776.5
2018-01-15T00:13:00.589Z,776.5
2018-01-15T00:13:04.570Z,776.45
2018-01-15T00:13:08.365Z,776.44
2018-01-15T00:13:12.289Z,776.46
2018-01-15T00:13:16.191Z,776.42
2018-01-15T00:13:19.991Z,776.42
2018-01-15T00:13:23.693Z,776.39
2018-01-15T00:13:27.513Z,776.34
2018-01-15T00:13:31.512Z,776.34
2018-01-15T00:13:35.433Z,776.31
2018-01-15T00:13:39.443Z,776.33
2018-01-15T00:13:43.357Z,776.29
2018-01-15T00:13:47.378Z,776.27
2018-01-15T00:13:51.389Z,776.28
2018-01-15T00:13:55.297Z,776.26
2018-01-15T00:13:59.318Z,776.18
2018-01-15T00:14:03.245Z,776.18
2018-01-15T00:14:07.066Z,776.24
2018-01-15T00:14:11.192Z,776.2
2018-01-15T00:14:15.096Z,776.19
2018-01-15T00:14:19.131Z,776.18
2018-01-15T00:14:22.829Z,776.15
2018-01-15T00:14:26.519Z,776.15
2018-01-15T00:14:30.326Z,776.14
2018-01-15T00:14:34.346Z,776.1
2018-01-15T00:14:38.353Z,776.09
2018-01-15T00:14:42.158Z,776.08
2018-01-15T00:14:46.296Z,776.05
2018-01-15T00:14:50.101Z,776.03
2018-01-15T00:14:53.913Z,776
2018-01-15T00:14:57.936Z,775.98
2018-01-15T00:15:01.845Z,775.99
2018-01-15T00:15:05.970Z,775.95
2018-01-15T00:15:10.193Z,775.96
2018-01-15T00:15:14.305Z,775.93
2018-01-15T00:15:18.113Z,775.94
2018-01-15T00:15:22.132Z,775.96
2018-01-15T00:15:26.049Z,775.91
2018-01-15T00:15:29.842Z,775.91
2018-01-15T00:15:33.760Z,775.9
2018-01-15T00:15:37.661Z,775.87
2018-01-15T00:15:41.778Z,775.85
2018-01-15T00:15:45.799Z,775.85
2018-01-15T00:15:50.015Z,775.81
2018-01-15T00:15:54.237Z,775.8
2018-01-15T00:15:58.246Z,775.8
2018-01-15T00:16:02.256Z,775.78
2018-01-15T00:16:06.179Z,775.8
2018-01-15T00:16:10.311Z,775.73
2018-01-15T00:16:14.133Z,775.74
2018-01-15T00:16:18.044Z,775.77
2018-01-15T00:16:21.864Z,775.71
2018-01-15T00:16:25.872Z,775.68
2018-01-15T00:16:29.898Z,775.7
2018-01-15T00:16:33.826Z,775.65
2018-01-15T00:16:37.998Z,775.66
2018-01-15T00:16:42.111Z,775.62
2018-01-15T00:16:46.137Z,775.64
2018-01-15T00:16:50.186Z,775.64
2018-01-15T00:16:53.989Z,775.62
2018-01-15T00:16:57.809Z,775.6
2018-01-15T00:17:01.725Z,775.59
2018-01-15T00:17:05.954Z,775.57
2018-01-15T00:17:09.960Z,775.54
2018-01-15T00:17:14.081Z,775.52
2018-01-15T00:17:18.102Z,775.52
2018-01-15T00:17:21.900Z,775.5
2018-01-15T00:17:25.715Z,775.49
2018-01-15T00:17:29.622Z,775.5
2018-01-15T00:17:33.746Z,775.46
2018-01-15T00:17:37.564Z,775.46
2018-01-15T00:17:41.584Z,775.42
2018-01-15T00:17:45.484Z,775.43
2018-01-15T00:17:49.396Z,775.42
2018-01-15T00:17:53.301Z,775.42
2018-01-15T00:17:57.331Z,775.38
2018-01-15T00:18:01.457Z,775.36
2018-01-15T00:18:05.379Z,775.37
2018-01-15T00:18:09.073Z,775.37
2018-01-15T00:18:12.885Z,775.32
2018-01-15T00:18:17.143Z,775.33
2018-01-15T00:18:21.163Z,775.28
2018-01-15T00:18:24.955Z,775.31
2018-01-15T00:18:28.871Z,775.29
2018-01-15T00:18:32.787Z,775.29
2018-01-15T00:18:36.800Z,775.22
2018-01-15T00:18:40.615Z,775.18
2018-01-15T00:18:44.419Z,775.23
2018-01-15T00:18:48.423Z,775.21
2018-01-15T00:18:52.342Z,775.19
2018-01-15T00:18:56.361Z,775.14
2018-01-15T00:19:00.161Z,775.09
2018-01-15T00:19:04.186Z,775.12
2018-01-15T00:19:08.091Z,775.08
2018-01-15T00:19:12.021Z,775.09
2018-01-15T00:19:15.942Z,775.08
2018-01-15T00:19:19.940Z,775.12
2018-01-15T00:19:23.738Z,775.09
2018-01-15T00:19:27.530Z,775.09
2018-01-15T00:19:31.449Z,775.06
2018-01-15T00:19:35.478Z,775.02
2018-01-15T00:19:39.491Z,775.04
2018-01-15T00:19:43.511Z,775.03
2018-01-15T00:19:47.420Z,774.99
2018-01-15T00:19:51.555Z,775.02
2018-01-15T00:19:55.584Z,774.97
2018-01-15T00:19:59.388Z,774.98
2018-01-15T00:20:03.501Z,774.94
2018-01-15T00:20:07.519Z,774.94
2018-01-15T00:20:11.528Z,774.91
2018-01-15T00:20:15.446Z,774.92
2018-01-15T00:20:19.361Z,774.88
2018-01-15T00:20:23.059Z,774.86
2018-01-15T00:20:26.886Z,774.87
2018-01-15T00:20:30.893Z,774.82
2018-01-15T00:20:34.912Z,774.81
2018-01-15T00:20:38.723Z,774.77
2018-01-15T00:20:42.746Z,774.82
2018-01-15T00:20:46.434Z,774.81
2018-01-15T00:20:50.350Z,774.77
2018-01-15T00:20:54.258Z,774.75
2018-01-15T00:20:58.284Z,774.75
2018-01-15T00:21:02.496Z,774.73
2018-01-15T00:21:06.418Z,774.73
2018-01-15T00:21:10.353Z,774.69
2018-01-15T00:21:14.263Z,774.68
2018-01-15T00:21:18.184Z,774.68
2018-01-15T00:21:21.910Z,774.71
2018-01-15T00:21:25.939Z,774.65
2018-01-15T00:21:30.066Z,774.65
2018-01-15T00:21:34.089Z,774.64
2018-01-15T00:21:37.895Z,774.62
2018-01-15T00:21:41.822Z,774.56
2018-01-15T00:21:45.745Z,774.58
2018-01-15T00:21:49.548Z,774.54
2018-01-15T00:21:53.350Z,774.53
2018-01-15T00:21:57.274Z,774.5
2018-01-15T00:22:01.290Z,774.51
2018-01-15T00:22:05.460Z,774.52
2018-01-15T00:22:09.258Z,774.5
2018-01-15T00:22:13.065Z,774.49
2018-01-15T00:22:16.867Z,774.47
2018-01-15T00:22:20.677Z,774.4
2018-01-15T00:22:24.484Z,774.4
2018-01-15T00:22:28.200Z,774.43
2018-01-15T00:22:32.430Z,774.38
2018-01-15T00:22:36.236Z,774.35
2018-01-15T00:22:40.143Z,774.37
2018-01-15T00:22:44.059Z,774.35
2018-01-15T00:22:48.078Z,774.34
2018-01-15T00:22:51.866Z,774.32
2018-01-15T00:22:55.672Z,774.26
2018-01-15T00:22:59.686Z,774.27
2018-01-15T00:23:03.900Z,774.24
2018-01-15T00:23:07.711Z,774.25
2018-01-15T00:23:11.630Z,774.21
2018-01-15T00:23:15.532Z,774.2
2018-01-15T00:23:19.342Z,774.22
2018-01-15T00:23:23.146Z,774.18
2018-01-15T00:23:27.047Z,774.18
2018-01-15T00:23:30.855Z,774.15
2018-01-15T00:23:34.883Z,774.12
2018-01-15T00:23:38.680Z,774.09
2018-01-15T00:23:42.601Z,774.13
2018-01-15T00:23:46.631Z,774.12
2018-01-15T00:23:50.528Z,774.09
2018-01-15T00:23:54.761Z,774.07
2018-01-15T00:23:58.778Z,774.06
2018-01-15T00:24:03.212Z,774.02
2018-01-15T00:24:07.234Z,774.01
2018-01-15T00:24:11.039Z,773.95
2018-01-15T00:24:14.946Z,773.99
2018-01-15T00:24:18.639Z,773.96
2018-01-15T00:24:22.552Z,773.96
2018-01-15T00:24:26.452Z,773.95
2018-01-15T00:24:30.357Z,773.89
2018-01-15T00:24:34.386Z,773.91
2018-01-15T00:24:38.515Z,773.89
2018-01-15T00:24:42.755Z,773.89
2018-01-15T00:24:46.661Z,773.85
2018-01-15T00:24:50.900Z,773.84
2018-01-15T00:24:54.814Z,773.84
2018-01-15T00:24:58.719Z,773.81
2018-01-15T00:25:02.735Z,773.81
2018-01-15T00:25:06.748Z,773.77
2018-01-15T00:25:10.443Z,773.74
2018-01-15T00:25:14.263Z,773.74
2018-01-15T00:25:18.270Z,773.74
2018-01-15T00:25:22.094Z,773.75
2018-01-15T00:25:26.018Z,773.74
2018-01-15T00:25:29.937Z,773.67
2018-01-15T00:25:33.855Z,773.68
2018-01-15T00:25:37.761Z,773.66
2018-01-15T00:25:41.742Z,773.64
2018-01-15T00:25:45.552Z,773.64
2018-01-15T00:25:49.583Z,773.63
2018-01-15T00:25:53.278Z,773.64
2018-01-15T00:25:57.190Z,773.63
2018-01-15T00:26:01.205Z,773.59
2018-01-15T00:26:05.429Z,773.62
2018-01-15T00:26:09.329Z,773.57
2018-01-15T00:26:13.247Z,773.54
2018-01-15T00:26:17.478Z,773.54
2018-01-15T00:26:21.171Z,773.55
2018-01-15T00:26:25.081Z,773.55
2018-01-15T00:26:28.990Z,773.53
2018-01-15T00:26:32.802Z,773.49
2018-01-15T00:26:36.607Z,773.46
2018-01-15T00:26:40.403Z,773.46
2018-01-15T00:26:44.212Z,773.45
2018-01-15T00:26:48.345Z,773.42
2018-01-15T00:26:52.370Z,773.43
2018-01-15T00:26:56.157Z,773.37
2018-01-15T00:27:00.075Z,773.43
2018-01-15T00:27:04.111Z,773.36
2018-01-15T00:27:08.248Z,773.41
2018-01-15T00:27:12.476Z,773.37
2018-01-15T00:27:16.389Z,773.37
2018-01-15T00:27:20.218Z,773.35
2018-01-15T00:27:24.356Z,773.35
2018-01-15T00:27:28.161Z,773.34
2018-01-15T00:27:32.292Z,773.33
2018-01-15T00:27:36.430Z,773.3
2018-01-15T00:27:40.446Z,773.28
2018-01-15T00:27:44.249Z,773.28
2018-01-15T00:27:48.150Z,773.27
2018-01-15T00:27:52.184Z,773.28
2018-01-15T00:27:56.101Z,773.23
2018-01-15T00:28:00.269Z,773.21
2018-01-15T00:28:04.329Z,773.21
2018-01-15T00:28:08.484Z,773.18
2018-01-15T00:28:12.509Z,773.19
2018-01-15T00:28:16.514Z,773.18
2018-01-15T00:28:20.316Z,773.14
2018-01-15T00:28:24.536Z,773.16
2018-01-15T00:28:28.223Z,773.15
2018-01-15T00:28:32.341Z,773.11
2018-01-15T00:28:36.046Z,773.1
2018-01-15T00:28:40.061Z,773.11
2018-01-15T00:28:43.880Z,773.06
2018-01-15T00:28:47.784Z,773.06
2018-01-15T00:28:51.572Z,773.06
2018-01-15T00:28:55.480Z,773.06
2018-01-15T00:28:59.506Z,772.99
2018-01-15T00:29:03.469Z,773.03
2018-01-15T00:29:07.266Z,773.04
2018-01-15T00:29:11.459Z,772.98
2018-01-15T00:29:15.391Z,773.01
2018-01-15T00:29:19.404Z,773
2018-01-15T00:29:23.326Z,772.96
2018-01-15T00:29:27.123Z,772.97
2018-01-15T00:29:31.498Z,772.98
2018-01-15T00:29:35.540Z,772.96
2018-01-15T00:29:39.672Z,772.95
2018-01-15T00:29:43.684Z,772.9
2018-01-15T00:29:47.578Z,772.92
2018-01-15T00:29:51.485Z,772.89
2018-01-15T00:29:55.194Z,772.91
2018-01-15T00:29:59.000Z,772.89
2018-01-15T00:30:03.321Z,772.9
2018-01-15T00:30:07.123Z,772.88
2018-01-15T00:30:11.136Z,772.85
2018-01-15T00:30:15.155Z,772.84
2018-01-15T00:30:18.866Z,772.8
2018-01-15T00:30:22.887Z,772.82
2018-01-15T00:30:26.921Z,772.81
2018-01-15T00:30:31.135Z,772.81
2018-01-15T00:30:35.480Z,772.8
2018-01-15T00:30:39.298Z,772.8
2018-01-15T00:30:43.348Z,772.78
2018-01-15T00:30:47.151Z,772.76
2018-01-15T00:30:51.064Z,772.74
2018-01-15T00:30:54.975Z,772.76
2018-01-15T00:30:58.871Z,772.76
2018-01-15T00:31:02.993Z,772.71
2018-01-15T00:31:06.779Z,772.75
2018-01-15T00:31:10.679Z,772.68
2018-01-15T00:31:14.685Z,772.7
2018-01-15T00:31:18.393Z,772.7
2018-01-15T00:31:22.196Z,772.68
2018-01-15T00:31:26.106Z,772.67
2018-01-15T00:31:30.239Z,772.67
2018-01-15T00:31:34.248Z,772.67
2018-01-15T00:31:38.261Z,772.64
2018-01-15T00:31:42.167Z,772.63
2018-01-15T00:31:46.071Z,772.61
2018-01-15T00:31:49.997Z,772.62
2018-01-15T00:31:53.914Z,772.63
2018-01-15T00:31:57.825Z,772.62
2018-01-15T00:32:01.733Z,772.62
2018-01-15T00:32:05.653Z,772.55
2018-01-15T00:32:09.554Z,772.58
2018-01-15T00:32:13.461Z,772.53
2018-01-15T00:32:17.380Z,772.6
2018-01-15T00:32:21.195Z,772.52
2018-01-15T00:32:25.101Z,772.48
2018-01-15T00:32:29.344Z,772.55
2018-01-15T00:32:33.250Z,772.53
2018-01-15T00:32:37.169Z,772.46
2018-01-15T00:32:41.088Z,772.45
2018-01-15T00:32:44.802Z,772.42
2018-01-15T00:32:48.821Z,772.44
2018-01-15T00:32:52.832Z,772.45
2018-01-15T00:32:56.636Z,772.44
2018-01-15T00:33:00.490Z,772.41
2018-01-15T00:33:04.498Z,772.42
2018-01-15T00:33:08.409Z,772.43
2018-01-15T00:33:12.550Z,772.42
2018-01-15T00:33:16.450Z,772.38
2018-01-15T00:33:20.262Z,772.41
2018-01-15T00:33:24.179Z,772.37
2018-01-15T00:33:28.081Z,772.39
2018-01-15T00:33:32.197Z,772.43
2018-01-15T00:33:36.309Z,772.4
2018-01-15T00:33:40.105Z,772.4
2018-01-15T00:33:44.031Z,772.39
2018-01-15T00:33:47.933Z,772.4
2018-01-15T00:33:51.838Z,772.37
2018-01-15T00:33:55.646Z,772.34
2018-01-15T00:33:59.557Z,772.34
2018-01-15T00:34:03.940Z,772.36
2018-01-15T00:34:07.738Z,772.34
2018-01-15T00:34:11.557Z,772.35
2018-01-15T00:34:15.581Z,772.32
2018-01-15T00:34:19.501Z,772.35
2018-01-15T00:34:23.425Z,772.32
2018-01-15T00:34:27.249Z,772.31
2018-01-15T00:34:31.275Z,772.34
2018-01-15T00:34:35.297Z,772.29
2018-01-15T00:34:38.995Z,772.3
2018-01-15T00:34:43.103Z,772.28
2018-01-15T00:34:47.015Z,772.26
2018-01-15T00:34:50.919Z,772.26
2018-01-15T00:34:54.926Z,772.28
2018-01-15T00:34:59.046Z,772.25
2018-01-15T00:35:03.118Z,772.26
2018-01-15T00:35:06.934Z,772.25
2018-01-15T00:35:10.855Z,772.21
2018-01-15T00:35:14.873Z,772.2
2018-01-15T00:35:18.779Z,772.21
2018-01-15T00:35:22.803Z,772.18
2018-01-15T00:35:26.732Z,772.21
2018-01-15T00:35:30.650Z,772.17
2018-01-15T00:35:34.339Z,772.2
2018-01-15T00:35:38.250Z,772.16
2018-01-15T00:35:42.266Z,772.19
2018-01-15T00:35:46.278Z,772.16
2018-01-15T00:35:50.180Z,772.14
2018-01-15T00:35:54.401Z,772.16
2018-01-15T00:35:58.621Z,772.14
2018-01-15T00:36:02.785Z,772.16
2018-01-15T00:36:06.688Z,772.14
2018-01-15T00:36:10.613Z,772.15
2018-01-15T00:36:14.422Z,772.13
2018-01-15T00:36:18.241Z,772.1
2018-01-15T00:36:21.958Z,772.12
2018-01-15T00:36:25.773Z,772.12
2018-01-15T00:36:29.591Z,772.11
2018-01-15T00:36:33.625Z,772.08
2018-01-15T00:36:37.528Z,772.09
2018-01-15T00:36:41.447Z,772.07
2018-01-15T00:36:45.253Z,772.04
2018-01-15T00:36:49.061Z,772.05
2018-01-15T00:36:53.090Z,772.04
2018-01-15T00:36:57.201Z,772.04
2018-01-15T00:37:01.218Z,772.01
2018-01-15T00:37:05.235Z,772.02
2018-01-15T00:37:09.260Z,772
2018-01-15T00:37:13.158Z,772.02
2018-01-15T00:37:16.838Z,771.97
2018-01-15T00:37:20.757Z,771.99
2018-01-15T00:37:24.781Z,772
2018-01-15T00:37:28.583Z,772
2018-01-15T00:37:32.491Z,771.97
2018-01-15T00:37:36.424Z,771.95
2018-01-15T00:37:40.218Z,771.96
2018-01-15T00:37:44.218Z,771.95
2018-01-15T00:37:48.134Z,771.98
2018-01-15T00:37:52.039Z,771.94
2018-01-15T00:37:55.941Z,771.95
2018-01-15T00:37:59.850Z,771.91
2018-01-15T00:38:03.779Z,771.89
2018-01-15T00:38:07.584Z,771.92
2018-01-15T00:38:11.371Z,771.89
2018-01-15T00:38:15.175Z,771.9
2018-01-15T00:38:19.521Z,771.89
2018-01-15T00:38:23.443Z,771.85
2018-01-15T00:38:27.240Z,771.88
2018-01-15T00:38:31.255Z,771.88
2018-01-15T00:38:35.273Z,771.86
2018-01-15T00:38:39.188Z,771.84
2018-01-15T00:38:43.208Z,771.84
2018-01-15T00:38:47.337Z,771.82
2018-01-15T00:38:51.359Z,771.82
2018-01-15T00:38:55.191Z,771.81
2018-01-15T00:38:59.109Z,771.81
2018-01-15T00:39:03.430Z,771.8
2018-01-15T00:39:07.350Z,771.77
2018-01-15T00:39:11.377Z,771.75
2018-01-15T00:39:15.178Z,771.76
2018-01-15T00:39:19.085Z,771.73
2018-01-15T00:39:23.200Z,771.75
2018-01-15T00:39:27.111Z,771.75
2018-01-15T00:39:31.029Z,771.73
2018-01-15T00:39:35.265Z,771.72
2018-01-15T00:39:39.195Z,771.73
2018-01-15T00:39:43.001Z,771.73
2018-01-15T00:39:46.913Z,771.71
2018-01-15T00:39:50.823Z,771.72
2018-01-15T00:39:55.041Z,771.69
2018-01-15T00:39:58.945Z,771.71
2018-01-15T00:40:03.318Z,771.7
2018-01-15T00:40:07.217Z,771.68
2018-01-15T00:40:11.054Z,771.66
2018-01-15T00:40:15.279Z,771.65
2018-01-15T00:40:18.972Z,771.66
2018-01-15T00:40:23.108Z,771.64
2018-01-15T00:40:27.183Z,771.6
2018-01-15T00:40:30.988Z,771.57
2018-01-15T00:40:35.207Z,771.58
2018-01-15T00:40:38.996Z,771.58
2018-01-15T00:40:43.108Z,771.57
2018-01-15T00:40:47.039Z,771.57
2018-01-15T00:40:50.847Z,771.6
2018-01-15T00:40:54.763Z,771.6
2018-01-15T00:40:58.570Z,771.55
2018-01-15T00:41:02.594Z,771.55
2018-01-15T00:41:06.406Z,771.56
2018-01-15T00:41:10.115Z,771.56
2018-01-15T00:41:14.041Z,771.55
2018-01-15T00:41:18.067Z,771.52
2018-01-15T00:41:22.089Z,771.51
2018-01-15T00:41:26.001Z,771.52
2018-01-15T00:41:29.939Z,771.51
2018-01-15T00:41:34.065Z,771.5
2018-01-15T00:41:38.178Z,771.5
2018-01-15T00:41:42.097Z,771.51
2018-01-15T00:41:45.902Z,771.49
2018-01-15T00:41:50.143Z,771.45
2018-01-15T00:41:53.953Z,771.43
2018-01-15T00:41:57.876Z,771.44
2018-01-15T00:42:01.678Z,771.44
2018-01-15T00:42:05.681Z,771.43
2018-01-15T00:42:09.477Z,771.41
2018-01-15T00:42:13.276Z,771.39
2018-01-15T00:42:17.182Z,771.39
2018-01-15T00:42:21.205Z,771.38
2018-01-15T00:42:25.218Z,771.37
2018-01-15T00:42:29.124Z,771.34
2018-01-15T00:42:33.133Z,771.35
2018-01-15T00:42:37.246Z,771.36
2018-01-15T00:42:41.175Z,771.34
2018-01-15T00:42:44.973Z,771.33
2018-01-15T00:42:49.097Z,771.34
2018-01-15T00:42:52.914Z,771.28
2018-01-15T00:42:56.621Z,771.25
2018-01-15T00:43:00.653Z,771.3
2018-01-15T00:43:04.783Z,771.29
2018-01-15T00:43:08.696Z,771.28
2018-01-15T00:43:12.592Z,771.27
2018-01-15T00:43:16.406Z,771.28
2018-01-15T00:43:20.206Z,771.24
2018-01-15T00:43:24.099Z,771.23
2018-01-15T00:43:28.004Z,771.22
2018-01-15T00:43:31.904Z,771.19
2018-01-15T00:43:35.820Z,771.21
2018-01-15T00:43:39.616Z,771.16
2018-01-15T00:43:43.525Z,771.18
2018-01-15T00:43:47.544Z,771.16
2018-01-15T00:43:51.677Z,771.16
2018-01-15T00:43:55.475Z,771.11
2018-01-15T00:43:59.179Z,771.12
2018-01-15T00:44:03.376Z,771.12
2018-01-15T00:44:07.291Z,771.11
2018-01-15T00:44:11.317Z,771.12
2018-01-15T00:44:15.126Z,771.08
2018-01-15T00:44:18.945Z,771.09
2018-01-15T00:44:22.856Z,771.07
2018-01-15T00:44:27.093Z,771.08
2018-01-15T00:44:31.012Z,771.05
2018-01-15T00:44:35.034Z,771.03
2018-01-15T00:44:38.952Z,771.05
2018-01-15T00:44:42.980Z,770.99
2018-01-15T00:44:46.684Z,770.96
2018-01-15T00:44:50.721Z,771.02
2018-01-15T00:44:54.640Z,770.95
2018-01-15T00:44:58.454Z,770.95
2018-01-15T00:45:02.451Z,770.93
2018-01-15T00:45:06.469Z,770.92
2018-01-15T00:45:10.469Z,770.9
2018-01-15T00:45:14.386Z,770.87
2018-01-15T00:45:18.404Z,770.84
2018-01-15T00:45:22.200Z,770.85
2018-01-15T00:45:26.108Z,770.86
2018-01-15T00:45:30.127Z,770.84
2018-01-15T00:45:34.040Z,770.79
2018-01-15T00:45:38.211Z,770.81
2018-01-15T00:45:42.325Z,770.81
2018-01-15T00:45:46.342Z,770.83
2018-01-15T00:45:50.465Z,770.75
2018-01-15T00:45:54.277Z,770.77
2018-01-15T00:45:58.190Z,770.73
2018-01-15T00:46:02.345Z,770.77
2018-01-15T00:46:06.373Z,770.74
2018-01-15T00:46:10.396Z,770.7
2018-01-15T00:46:14.106Z,770.72
2018-01-15T00:46:18.129Z,770.7
2018-01-15T00:46:21.822Z,770.72
2018-01-15T00:46:25.796Z,770.71
2018-01-15T00:46:29.917Z,770.67
2018-01-15T00:46:33.625Z,770.67
2018-01-15T00:46:37.430Z,770.66
2018-01-15T00:46:41.232Z,770.65
2018-01-15T00:46:45.034Z,770.58
2018-01-15T00:46:49.041Z,770.58
2018-01-15T00:46:52.947Z,770.57
2018-01-15T00:46:56.756Z,770.54
2018-01-15T00:47:00.580Z,770.56
2018-01-15T00:47:04.704Z,770.59
2018-01-15T00:47:08.714Z,770.56
2018-01-15T00:47:12.538Z,770.54
2018-01-15T00:47:16.450Z,770.58
2018-01-15T00:47:20.157Z,770.57
2018-01-15T00:47:24.053Z,770.53
2018-01-15T00:47:28.087Z,770.56
2018-01-15T00:47:32.104Z,770.52
2018-01-15T00:47:36.226Z,770.49
2018-01-15T00:47:40.027Z,770.43
2018-01-15T00:47:44.040Z,770.47
2018-01-15T00:47:47.937Z,770.46
2018-01-15T00:47:52.068Z,770.47
2018-01-15T00:47:55.976Z,770.47
2018-01-15T00:47:59.883Z,770.44
2018-01-15T00:48:03.938Z,770.43
2018-01-15T00:48:07.841Z,770.41
2018-01-15T00:48:11.963Z,770.38
2018-01-15T00:48:16.042Z,770.41
2018-01-15T00:48:20.173Z,770.4
2018-01-15T00:48:24.414Z,770.4
2018-01-15T00:48:28.359Z,770.39
2018-01-15T00:48:32.382Z,770.33
2018-01-15T00:48:36.281Z,770.35
2018-01-15T00:48:40.299Z,770.36
2018-01-15T00:48:44.234Z,770.37
2018-01-15T00:48:48.360Z,770.35
2018-01-15T00:48:52.058Z,770.35
2018-01-15T00:48:56.090Z,770.35
2018-01-15T00:49:00.009Z,770.32
2018-01-15T00:49:04.038Z,770.31
2018-01-15T00:49:07.835Z,770.31
2018-01-15T00:49:11.752Z,770.26
2018-01-15T00:49:15.661Z,770.29
2018-01-15T00:49:19.681Z,770.31
2018-01-15T00:49:23.481Z,770.26
2018-01-15T00:49:27.413Z,770.3